sensor_id;sensor_type;location;lat;lon;timestamp;temperature;humidity
20885;DHT22;10602;48.000;9.654;2024-02-16T19:58:38;10.90;1.00
20885;DHT22;10602;48.000;9.654;2024-02-16T20:01:05;10.90;1.00
20885;DHT22;10602;48.000;9.654;2024-02-16T20:03:33;10.90;1.00
20885;DHT22;10602;48.000;9.654;2024-02-16T20:06:00;10.90;1.00
20885;DHT22;10602;48.000;9.654;2024-02-16T20:08:28;10.90;1.00
20885;DHT22;10602;48.000;9.654;2024-02-16T20:10:56;10.90;1.00
20885;DHT22;10602;48.000;9.654;2024-02-16T20:13:24;10.90;1.00
20885;DHT22;10602;48.000;9.654;2024-02-16T20:15:52;10.80;1.00
20885;DHT22;10602;48.000;9.654;2024-02-16T20:18:20;10.90;1.00
20885;DHT22;10602;48.000;9.654;2024-02-16T20:20:49;10.80;1.00
20885;DHT22;10602;48.000;9.654;2024-02-16T20:23:17;10.80;1.00
20885;DHT22;10602;48.000;9.654;2024-02-16T20:25:45;10.70;1.00
20885;DHT22;10602;48.000;9.654;2024-02-16T20:28:13;10.70;1.00
20885;DHT22;10602;48.000;9.654;2024-02-16T20:30:40;10.60;1.00
20885;DHT22;10602;48.000;9.654;2024-02-16T20:33:08;10.70;1.00
20885;DHT22;10602;48.000;9.654;2024-02-16T20:35:36;10.70;1.00
20885;DHT22;10602;48.000;9.654;2024-02-16T20:38:03;10.60;1.00
20885;DHT22;10602;48.000;9.654;2024-02-16T20:40:31;10.60;1.00
20885;DHT22;10602;48.000;9.654;2024-02-16T20:42:59;10.60;1.00
20885;DHT22;10602;48.000;9.654;2024-02-16T20:45:27;10.60;1.00
20885;DHT22;10602;48.000;9.654;2024-02-16T20:47:54;10.50;1.00
20885;DHT22;10602;48.000;9.654;2024-02-16T20:50:24;10.50;1.00
20885;DHT22;10602;48.000;9.654;2024-02-16T20:52:51;10.50;1.00
20885;DHT22;10602;48.000;9.654;2024-02-16T20:55:19;10.50;1.00
20885;DHT22;10602;48.000;9.654;2024-02-16T20:57:47;10.40;1.00
20885;DHT22;10602;48.000;9.654;2024-02-16T21:00:15;10.40;1.00
20885;DHT22;10602;48.000;9.654;2024-02-16T21:02:43;10.40;1.00
20885;DHT22;10602;48.000;9.654;2024-02-16T21:05:10;10.50;1.00
20885;DHT22;10602;48.000;9.654;2024-02-16T21:07:38;10.40;1.00
20885;DHT22;10602;48.000;9.654;2024-02-16T21:10:06;10.40;1.00
20885;DHT22;10602;48.000;9.654;2024-02-16T21:12:34;10.50;1.00
20885;DHT22;10602;48.000;9.654;2024-02-16T21:15:02;10.40;1.00
20885;DHT22;10602;48.000;9.654;2024-02-16T21:17:29;10.40;1.00
20885;DHT22;10602;48.000;9.654;2024-02-16T21:19:57;10.50;1.00
20885;DHT22;10602;48.000;9.654;2024-02-16T21:22:24;10.40;1.00
20885;DHT22;10602;48.000;9.654;2024-02-16T21:24:52;10.70;1.00
20885;DHT22;10602;48.000;9.654;2024-02-16T21:27:19;10.50;1.00
20885;DHT22;10602;48.000;9.654;2024-02-16T21:29:47;10.40;1.00
20885;DHT22;10602;48.000;9.654;2024-02-16T21:32:16;10.50;1.00
20885;DHT22;10602;48.000;9.654;2024-02-16T21:34:43;10.40;1.00
20885;DHT22;10602;48.000;9.654;2024-02-16T21:37:12;10.50;1.00
20885;DHT22;10602;48.000;9.654;2024-02-16T21:39:41;10.40;1.00
20885;DHT22;10602;48.000;9.654;2024-02-16T21:42:09;10.40;1.00
20885;DHT22;10602;48.000;9.654;2024-02-16T21:44:38;10.40;1.00
20885;DHT22;10602;48.000;9.654;2024-02-16T21:47:06;10.40;1.00
20885;DHT22;10602;48.000;9.654;2024-02-16T21:49:35;10.40;1.00
20885;DHT22;10602;48.000;9.654;2024-02-16T21:52:03;10.40;1.00
20885;DHT22;10602;48.000;9.654;2024-02-16T21:54:31;10.40;1.00
20885;DHT22;10602;48.000;9.654;2024-02-16T21:56:58;10.30;1.00
20885;DHT22;10602;48.000;9.654;2024-02-16T21:59:26;10.30;1.40
20885;DHT22;10602;48.000;9.654;2024-02-16T22:01:53;10.30;1.00
20885;DHT22;10602;48.000;9.654;2024-02-16T22:04:21;10.30;4.50
20885;DHT22;10602;48.000;9.654;2024-02-16T22:06:49;10.30;15.60
20885;DHT22;10602;48.000;9.654;2024-02-16T22:09:19;10.30;16.40
20885;DHT22;10602;48.000;9.654;2024-02-16T22:11:46;10.30;12.60
20885;DHT22;10602;48.000;9.654;2024-02-16T22:14:14;10.30;20.50
20885;DHT22;10602;48.000;9.654;2024-02-16T22:16:42;10.30;20.70
20885;DHT22;10602;48.000;9.654;2024-02-16T22:19:09;10.30;8.30
20885;DHT22;10602;48.000;9.654;2024-02-16T22:21:37;10.30;14.20
20885;DHT22;10602;48.000;9.654;2024-02-16T22:24:05;10.30;18.90
20885;DHT22;10602;48.000;9.654;2024-02-16T22:26:33;10.20;43.00
20885;DHT22;10602;48.000;9.654;2024-02-16T22:29:01;10.20;48.70
20885;DHT22;10602;48.000;9.654;2024-02-16T22:31:29;10.10;69.80
20885;DHT22;10602;48.000;9.654;2024-02-16T22:33:57;10.20;70.20
20885;DHT22;10602;48.000;9.654;2024-02-16T22:36:27;10.10;71.80
20885;DHT22;10602;48.000;9.654;2024-02-16T22:38:56;10.10;91.60
20885;DHT22;10602;48.000;9.654;2024-02-16T22:41:23;10.00;99.90
20885;DHT22;10602;48.000;9.654;2024-02-16T22:43:51;10.10;99.90
20885;DHT22;10602;48.000;9.654;2024-02-16T22:46:18;10.00;99.90
20885;DHT22;10602;48.000;9.654;2024-02-16T22:48:46;10.00;99.90
20885;DHT22;10602;48.000;9.654;2024-02-16T22:51:16;10.10;99.90
20885;DHT22;10602;48.000;9.654;2024-02-16T22:53:43;10.10;99.90
20885;DHT22;10602;48.000;9.654;2024-02-16T22:56:11;10.10;99.90
20885;DHT22;10602;48.000;9.654;2024-02-16T22:58:38;10.10;99.90
20885;DHT22;10602;48.000;9.654;2024-02-16T23:01:05;10.10;99.90
20885;DHT22;10602;48.000;9.654;2024-02-16T23:03:33;10.20;99.90
20885;DHT22;10602;48.000;9.654;2024-02-16T23:06:00;10.20;99.90
20885;DHT22;10602;48.000;9.654;2024-02-16T23:08:28;10.20;99.90
20885;DHT22;10602;48.000;9.654;2024-02-16T23:10:56;10.20;99.90
20885;DHT22;10602;48.000;9.654;2024-02-16T23:13:24;10.20;99.90
20885;DHT22;10602;48.000;9.654;2024-02-16T23:15:51;10.20;99.90
20885;DHT22;10602;48.000;9.654;2024-02-16T23:18:19;10.10;99.90
20885;DHT22;10602;48.000;9.654;2024-02-16T23:20:52;10.10;99.90
20885;DHT22;10602;48.000;9.654;2024-02-16T23:23:20;10.00;99.90
20885;DHT22;10602;48.000;9.654;2024-02-16T23:25:48;10.00;99.90
20885;DHT22;10602;48.000;9.654;2024-02-16T23:28:16;10.00;99.90
20885;DHT22;10602;48.000;9.654;2024-02-16T23:30:44;10.00;99.90
20885;DHT22;10602;48.000;9.654;2024-02-16T23:33:12;10.00;99.90
20885;DHT22;10602;48.000;9.654;2024-02-16T23:35:39;9.90;99.90
20885;DHT22;10602;48.000;9.654;2024-02-16T23:38:07;9.90;99.90
20885;DHT22;10602;48.000;9.654;2024-02-16T23:40:35;9.80;99.90
20885;DHT22;10602;48.000;9.654;2024-02-16T23:43:02;9.80;99.90
20885;DHT22;10602;48.000;9.654;2024-02-16T23:45:32;9.80;99.90
20885;DHT22;10602;48.000;9.654;2024-02-16T23:48:03;9.80;99.90
20885;DHT22;10602;48.000;9.654;2024-02-16T23:50:30;9.70;99.90
20885;DHT22;10602;48.000;9.654;2024-02-16T23:52:58;9.70;99.90
20885;DHT22;10602;48.000;9.654;2024-02-16T23:55:26;9.70;99.90
20885;DHT22;10602;48.000;9.654;2024-02-16T23:57:54;9.60;99.90
